YD2UMH-10 Weather Reports


Display with metric or nautical units.
time (UTC)temp
F
wind
direction
speed
MPH
gust
MPH
rain 1hr
in
rain 24hr
in
rain mn
in
humidity
%
barometer
mb
20260504214225 76 0 0.0 0.0 0.00 0.00 0.00 99 990.0
20260504213703 76 0 0.0 0.0 0.00 0.00 0.00 99 990.0
20260504213143 76 0 0.0 0.0 0.00 0.00 0.00 99 990.0
20260504212619 76 0 0.0 0.0 0.00 0.00 0.00 99 990.0
20260504212057 76 0 0.0 0.0 0.00 0.00 0.00 99 990.0
20260504211535 76 0 0.0 0.0 0.00 0.00 0.00 99 990.0
20260504211013 76 0 0.0 0.0 0.00 0.00 0.00 99 990.0
20260504210451 76 0 0.0 0.0 0.00 0.00 0.00 99 990.0
20260504205929 76 0 0.0 0.0 0.00 0.00 0.00 99 990.0
20260504205407 76 0 0.0 0.0 0.00 0.00 0.00 99 990.0
20260504204845 76 0 0.0 0.0 0.00 0.00 0.00 99 990.0
20260504204324 76 0 0.0 0.0 0.00 0.00 0.00 99 990.0
20260504203801 76 0 0.0 0.0 0.00 0.00 0.00 99 990.0
20260504203239 76 0 0.0 0.0 0.00 0.00 0.00 99 990.0
20260504202718 76 0 0.0 0.0 0.00 0.00 0.00 99 990.0
20260504202155 76 0 0.0 0.0 0.00 0.00 0.00 99 990.0
20260504201633 76 0 0.0 0.0 0.00 0.00 0.00 99 989.0
20260504201111 76 0 0.0 0.0 0.00 0.00 0.00 99 990.0
20260504200549 76 0 0.0 0.0 0.00 0.00 0.00 99 990.0
20260504200027 77 0 0.0 0.0 0.00 0.00 0.00 99 990.0
20260504195505 77 0 0.0 0.0 0.00 0.00 0.00 99 990.0
20260504194943 77 0 0.0 0.0 0.00 0.00 0.00 99 990.0
20260504194421 77 0 0.0 0.0 0.00 0.00 0.00 99 990.0
20260504193859 77 0 0.0 0.0 0.00 0.00 0.00 99 990.0
20260504193337 77 0 0.0 0.0 0.00 0.00 0.00 99 990.0
20260504192815 77 0 0.0 0.0 0.00 0.00 0.00 99 990.0
20260504192255 77 0 0.0 0.0 0.00 0.00 0.00 99 990.0
20260504191731 77 0 0.0 0.0 0.00 0.00 0.00 99 990.0
20260504191209 77 0 0.0 0.0 0.00 0.00 0.00 99 990.0
20260504190647 77 0 0.0 0.0 0.00 0.00 0.00 99 990.0
20260504190125 77 0 0.0 0.0 0.00 0.00 0.00 99 990.0
20260504185603 77 0 0.0 0.0 0.00 0.00 0.00 99 990.0
20260504185041 77 0 0.0 0.0 0.00 0.00 0.00 99 990.0
20260504184519 77 0 0.0 0.0 0.00 0.00 0.00 99 990.0
20260504183957 77 0 0.0 0.0 0.00 0.00 0.00 99 990.0
20260504183435 77 0 0.0 0.0 0.00 0.00 0.00 99 990.0
20260504182913 77 0 0.0 0.0 0.00 0.00 0.00 99 990.0
20260504182351 77 0 0.0 0.0 0.00 0.00 0.00 99 990.0
20260504181829 77 0 0.0 0.0 0.00 0.00 0.00 99 990.0
20260504181307 77 0 0.0 0.0 0.00 0.00 0.00 99 990.0
20260504180745 77 0 0.0 0.0 0.00 0.00 0.00 99 990.0
20260504180223 77 0 0.0 0.0 0.00 0.00 0.00 99 990.0
20260504175701 77 0 0.0 0.0 0.00 0.00 0.00 99 991.0
20260504175139 77 0 0.0 0.0 0.00 0.00 0.00 99 991.0
20260504174617 77 0 0.0 0.0 0.00 0.00 0.00 99 991.0
20260504174055 78 0 0.0 0.0 0.00 0.00 0.00 99 991.0
20260504173533 78 0 0.0 0.0 0.00 0.00 0.00 99 991.0
20260504173011 78 0 0.0 0.0 0.00 0.00 0.00 99 991.0
20260504172449 78 0 0.0 0.0 0.00 0.00 0.00 99 991.0
20260504171927 78 0 0.0 0.0 0.00 0.00 0.00 99 991.0
20260504171405 78 0 0.0 0.0 0.00 0.00 0.00 99 991.0
20260504170843 78 0 0.0 0.0 0.00 0.00 0.00 99 991.0
20260504170321 78 0 0.0 0.0 0.00 0.00 0.00 99 991.0
20260504160419 79 0 0.0 0.0 0.00 0.00 0.00 99 992.0
20260504151039 81 0 0.0 0.0 0.00 0.00 0.00 99 992.0
20260504150517 81 0 0.0 0.0 0.00 0.00 0.00 99 992.0
20260504141137 80 0 0.0 0.0 0.00 0.00 0.00 99 992.0
20260504140615 80 0 0.0 0.0 0.00 0.00 0.00 99 992.0
20260504130713 80 0 0.0 0.0 0.00 0.00 0.00 99 992.0
20260504130151 80 0 0.0 0.0 0.00 0.00 0.00 99 992.0
20260504120249 81 0 0.0 0.0 0.00 0.00 0.00 99 991.0
20260504110346 80 0 0.0 0.0 0.00 0.00 0.00 99 990.0
20260504100443 82 0 0.0 0.0 0.00 0.00 0.00 99 990.0
20260504081723 91 0 0.0 0.0 0.00 0.00 0.00 99 988.0
20260504081201 92 0 0.0 0.0 0.00 0.00 0.00 99 988.0
20260504080639 92 0 0.0 0.0 0.00 0.00 0.00 99 988.0
20260504080117 93 0 0.0 0.0 0.00 0.00 0.00 99 988.0
20260504070215 100 0 0.0 0.0 0.00 0.00 0.00 92 988.0
20260504050411 94 0 0.0 0.0 0.00 0.00 0.00 99 990.0
20260504045849 96 0 0.0 0.0 0.00 0.00 0.00 99 990.0
20260504045327 94 0 0.0 0.0 0.00 0.00 0.00 99 991.0
20260504044805 95 0 0.0 0.0 0.00 0.00 0.00 99 991.0
20260504044243 99 0 0.0 0.0 0.00 0.00 0.00 99 991.0
20260504043721 100 0 0.0 0.0 0.00 0.00 0.00 99 991.0
20260504043159 100 0 0.0 0.0 0.00 0.00 0.00 99 991.0
20260504042637 107 0 0.0 0.0 0.00 0.00 0.00 90 991.0
20260504042115 97 0 0.0 0.0 0.00 0.00 0.00 99 991.0
20260504041553 105 0 0.0 0.0 0.00 0.00 0.00 94 991.0
20260504041031 101 0 0.0 0.0 0.00 0.00 0.00 99 991.0
20260504040509 99 0 0.0 0.0 0.00 0.00 0.00 99 991.0
20260504035947 98 0 0.0 0.0 0.00 0.00 0.00 99 991.0
20260504035425 96 0 0.0 0.0 0.00 0.00 0.00 99 991.0
20260504034903 95 0 0.0 0.0 0.00 0.00 0.00 99 992.0
20260504034341 95 0 0.0 0.0 0.00 0.00 0.00 99 992.0
20260504033819 95 0 0.0 0.0 0.00 0.00 0.00 99 992.0
20260504033257 90 0 0.0 0.0 0.00 0.00 0.00 99 992.0
20260504032735 92 0 0.0 0.0 0.00 0.00 0.00 99 992.0
20260504032213 96 0 0.0 0.0 0.00 0.00 0.00 99 992.0
20260504031651 92 0 0.0 0.0 0.00 0.00 0.00 99 992.0
20260504031129 95 0 0.0 0.0 0.00 0.00 0.00 99 992.0
20260504030607 93 0 0.0 0.0 0.00 0.00 0.00 99 992.0
20260504030045 95 0 0.0 0.0 0.00 0.00 0.00 99 992.0
20260504025523 94 0 0.0 0.0 0.00 0.00 0.00 99 992.0
20260504025001 100 0 0.0 0.0 0.00 0.00 0.00 99 992.0
20260504024439 92 0 0.0 0.0 0.00 0.00 0.00 99 992.0
20260504023917 93 0 0.0 0.0 0.00 0.00 0.00 99 992.0
20260504023355 94 0 0.0 0.0 0.00 0.00 0.00 99 992.0
20260504022833 96 0 0.0 0.0 0.00 0.00 0.00 99 993.0
20260504022311 98 0 0.0 0.0 0.00 0.00 0.00 99 992.0
20260504021749 93 0 0.0 0.0 0.00 0.00 0.00 99 993.0
20260504021227 91 0 0.0 0.0 0.00 0.00 0.00 99 993.0
20260504020705 90 0 0.0 0.0 0.00 0.00 0.00 99 993.0
20260504020143 89 0 0.0 0.0 0.00 0.00 0.00 99 993.0
20260504015621 89 0 0.0 0.0 0.00 0.00 0.00 99 992.0
20260504015059 87 0 0.0 0.0 0.00 0.00 0.00 99 992.0
20260504014537 88 0 0.0 0.0 0.00 0.00 0.00 99 992.0
20260504014015 88 0 0.0 0.0 0.00 0.00 0.00 99 992.0
20260504013453 87 0 0.0 0.0 0.00 0.00 0.00 99 992.0
20260504012931 85 0 0.0 0.0 0.00 0.00 0.00 99 992.0
20260504012409 84 0 0.0 0.0 0.00 0.00 0.00 99 992.0
20260504011847 83 0 0.0 0.0 0.00 0.00 0.00 99 992.0
20260504011325 82 0 0.0 0.0 0.00 0.00 0.00 99 992.0
20260504010803 82 0 0.0 0.0 0.00 0.00 0.00 99 992.0
20260504010241 82 0 0.0 0.0 0.00 0.00 0.00 99 992.0
20260504005719 82 0 0.0 0.0 0.00 0.00 0.00 99 992.0
20260504005157 81 0 0.0 0.0 0.00 0.00 0.00 99 992.0
20260504004635 81 0 0.0 0.0 0.00 0.00 0.00 99 992.0
20260504004113 81 0 0.0 0.0 0.00 0.00 0.00 99 992.0
20260504003551 81 0 0.0 0.0 0.00 0.00 0.00 99 992.0
20260504003029 81 0 0.0 0.0 0.00 0.00 0.00 99 992.0
20260504001945 80 0 0.0 0.0 0.00 0.00 0.00 99 992.0
20260504001423 80 0 0.0 0.0 0.00 0.00 0.00 99 992.0
20260504000901 80 0 0.0 0.0 0.00 0.00 0.00 99 992.0
20260504000339 80 0 0.0 0.0 0.00 0.00 0.00 99 992.0
20260503235817 80 0 0.0 0.0 0.00 0.00 0.00 99 992.0
20260503235255 80 0 0.0 0.0 0.00 0.00 0.00 99 992.0
20260503234733 79 0 0.0 0.0 0.00 0.00 0.00 99 992.0
20260503234211 79 0 0.0 0.0 0.00 0.00 0.00 99 992.0
20260503233649 79 0 0.0 0.0 0.00 0.00 0.00 99 992.0
20260503233127 79 0 0.0 0.0 0.00 0.00 0.00 99 991.0
20260503232606 79 0 0.0 0.0 0.00 0.00 0.00 99 991.0
20260503232043 79 0 0.0 0.0 0.00 0.00 0.00 99 991.0
20260503231521 79 0 0.0 0.0 0.00 0.00 0.00 99 991.0
20260503230959 78 0 0.0 0.0 0.00 0.00 0.00 99 991.0
20260503230437 78 0 0.0 0.0 0.00 0.00 0.00 99 991.0
20260503225915 78 0 0.0 0.0 0.00 0.00 0.00 99 991.0
20260503225353 78 0 0.0 0.0 0.00 0.00 0.00 99 991.0
20260503224831 78 0 0.0 0.0 0.00 0.00 0.00 99 991.0
20260503224309 78 0 0.0 0.0 0.00 0.00 0.00 99 991.0
20260503223747 78 0 0.0 0.0 0.00 0.00 0.00 99 991.0
20260503223225 78 0 0.0 0.0 0.00 0.00 0.00 99 991.0
20260503222703 78 0 0.0 0.0 0.00 0.00 0.00 99 991.0
20260503222141 78 0 0.0 0.0 0.00 0.00 0.00 99 991.0
20260503221629 78 0 0.0 0.0 0.00 0.00 0.00 99 991.0
20260503221057 78 0 0.0 0.0 0.00 0.00 0.00 99 991.0
20260503220536 78 0 0.0 0.0 0.00 0.00 0.00 99 991.0
20260503220013 78 0 0.0 0.0 0.00 0.00 0.00 99 991.0
20260503215450 78 0 0.0 0.0 0.00 0.00 0.00 99 991.0
20260503214928 79 0 0.0 0.0 0.00 0.00 0.00 99 991.0